Richburg, SC

2:19 PM EDT on April 27, 2015 (GMT -0400)
Richburg | | Change Station
CLOSE
Current Station
Personal Weather Station
Location: Chester, SC
Elevation: 564 ft
Nearby Weather Stations

Elev 564 ft 34.78 °N, 81.05 °W | Updated 3 seconds ago

Partly Cloudy
Partly Cloudy
20.1 °F
Feels Like 20 °F
N
2.1
Wind Variable Wind from SSW
Gusts 7.6 mph

Today
High -- | Low -- °F
--% Chance of Precip.
Yesterday
High -- | Low -- °F
Precip. -- in
6:38 AM 8:05 PM
Waxing Gibbous, 66% visible
Pressure 29.84 in
Visibility 10.0 miles
Clouds Scattered Clouds 5000 ft
Scattered Clouds 7000 ft
Windchill 20 °F
Dew Point -3 °F
Humidity 35%
Rainfall 0.00 in
Snow Depth Not available.
UV 0.0 out of 12
Pollen 9.80 out of 12
Air Quality Not available.
Flu Activity Local Activity
METAR KDCM 271815Z AUTO 00000KT 10SM SCT050 SCT070 21/03 A2984 RMK AO2

More Conditions Fewer Conditions

Pressure 29.84 in
Visibility 10.0 miles
Clouds Scattered Clouds 5000 ft
Scattered Clouds 7000 ft
Windchill 20 °F
Dew Point -3 °F
Humidity 35%
Rainfall 0.00 in
Snow Depth Not available.
UV 0.0 out of 12
Pollen 9.80 out of 12
Air Quality Not available.
Flu Activity Local Activity
METAR KDCM 271815Z AUTO 00000KT 10SM SCT050 SCT070 21/03 A2984 RMK AO2

More Conditions Fewer Conditions

10-Day Weather Forecast

Almanac

Astronomy

Apr. 27, 2015 Rise Set
Actual Time
Civil Twilight
Nautical Twilight
Astronomical Twilight
Moon
Length of Visible Light
Length of Day
Tomorrow will be .
, % of the Moon is Illuminated

Today's Extremes

State Highs State Lows

Community

WunderPhotos

Upload Photos

1,817,389 photos uploaded!

WunderBlogs® & News

Nearby

Air Quality

  Air Quality AQ Index Pollutant
Not available.

Snow Depth

Station Depth Elevation

Earthquake Activity

City Distance Mag. Time & Date
Minimum magnitude displayed is 2.5.

Coastal Water Temperatures

Place Temperature

Stations

Nearby Weather Stations

Station Location Temp. Windchill Dew Point Humidity Wind Precip. Elev Updated Type